createdAt,value
2018-09-08T00:00:29.223Z,83.67
2018-09-08T00:01:29.208Z,83.26
2018-09-08T00:02:29.219Z,82.43
2018-09-08T00:03:29.185Z,82.57
2018-09-08T00:04:29.173Z,82.33
2018-09-08T00:05:29.158Z,82.43
2018-09-08T00:06:29.151Z,83.15
2018-09-08T00:07:29.158Z,82.95
2018-09-08T00:08:29.131Z,83.67
2018-09-08T00:09:29.116Z,83.29
2018-09-08T00:10:29.102Z,82.84
2018-09-08T00:11:29.100Z,82.68
2018-09-08T00:12:29.106Z,82.43
2018-09-08T00:13:29.070Z,82.33
2018-09-08T00:14:29.061Z,82.23
2018-09-08T00:15:29.052Z,82.13
2018-09-08T00:16:29.039Z,81.92
2018-09-08T00:17:29.044Z,82.23
2018-09-08T00:18:29.019Z,81.71
2018-09-08T00:19:28.999Z,81.41
2018-09-08T00:20:28.987Z,81.71
2018-09-08T00:21:28.980Z,81.71
2018-09-08T00:22:28.992Z,81.71
2018-09-08T00:23:28.963Z,81.99
2018-09-08T00:24:28.950Z,81.57
2018-09-08T00:25:28.930Z,80.86
2018-09-08T00:26:28.927Z,80.79
2018-09-08T00:27:28.945Z,80.86
2018-09-08T00:28:28.908Z,80.82
2018-09-08T00:29:28.883Z,80.21
2018-09-08T00:30:28.878Z,79.90
2018-09-08T00:31:28.867Z,80.41
2018-09-08T00:32:28.855Z,80.00
2018-09-08T00:33:28.863Z,80.10
2018-09-08T00:34:28.826Z,80.10
2018-09-08T00:35:28.827Z,80.10
2018-09-08T00:36:28.811Z,79.90
2018-09-08T00:37:28.792Z,80.41
2018-09-08T00:38:28.842Z,80.31
2018-09-08T00:39:28.768Z,79.59
2018-09-08T00:40:28.764Z,79.80
2018-09-08T00:41:28.753Z,79.59
2018-09-08T00:42:28.732Z,79.28
2018-09-08T00:43:28.728Z,80.41
2018-09-08T00:44:28.734Z,80.31
2018-09-08T00:45:28.698Z,79.80
2018-09-08T00:46:28.683Z,79.59
2018-09-08T00:47:28.682Z,79.49
2018-09-08T00:48:28.670Z,78.56
2018-09-08T00:49:28.672Z,78.32
2018-09-08T00:50:28.640Z,78.67
2018-09-08T00:51:28.629Z,79.49
2018-09-08T00:52:28.612Z,79.18
2018-09-08T00:53:28.609Z,78.87
2018-09-08T00:54:28.617Z,79.80
2018-09-08T00:55:28.585Z,79.38
2018-09-08T00:56:28.570Z,79.08
2018-09-08T00:57:28.553Z,79.18
2018-09-08T00:58:28.548Z,78.46
2018-09-08T00:59:28.553Z,78.94
2018-09-08T01:00:28.524Z,78.94
2018-09-08T01:01:28.506Z,78.42
2018-09-08T01:02:43.395Z,78.83
2018-09-08T01:03:28.480Z,79.24
2018-09-08T01:04:28.490Z,78.12
2018-09-08T01:05:28.483Z,78.08
2018-09-08T01:06:28.449Z,77.47
2018-09-08T01:07:28.436Z,77.47
2018-09-08T01:08:28.430Z,78.08
2018-09-08T01:09:28.409Z,77.98
2018-09-08T01:10:28.425Z,77.57
2018-09-08T01:11:28.385Z,77.57
2018-09-08T01:12:28.372Z,77.67
2018-09-08T01:13:28.369Z,77.47
2018-09-08T01:14:28.347Z,77.47
2018-09-08T01:15:28.370Z,77.71
2018-09-08T01:16:28.329Z,77.71
2018-09-08T01:17:28.314Z,77.91
2018-09-08T01:18:28.307Z,78.74
2018-09-08T01:19:28.291Z,78.53
2018-09-08T01:20:28.301Z,78.87
2018-09-08T01:21:28.270Z,78.97
2018-09-08T01:22:28.255Z,78.67
2018-09-08T01:23:28.249Z,78.56
2018-09-08T01:24:28.234Z,78.87
2018-09-08T01:25:28.241Z,79.28
2018-09-08T01:26:28.204Z,79.38
2018-09-08T01:27:28.201Z,78.87
2018-09-08T01:28:28.184Z,78.56
2018-09-08T01:29:28.174Z,79.18
2018-09-08T01:30:28.189Z,78.36
2018-09-08T01:31:28.144Z,78.36
2018-09-08T01:32:28.141Z,78.83
2018-09-08T01:33:28.120Z,78.12
2018-09-08T01:34:28.111Z,77.57
2018-09-08T01:35:28.125Z,77.16
2018-09-08T01:36:28.084Z,77.26
2018-09-08T01:37:28.081Z,77.06
2018-09-08T01:38:28.065Z,76.95
2018-09-08T01:39:28.051Z,76.85
2018-09-08T01:40:28.057Z,76.51
2018-09-08T01:41:28.030Z,76.40
2018-09-08T01:42:28.018Z,76.61
2018-09-08T01:43:28.004Z,75.89
2018-09-08T01:44:27.990Z,75.96
2018-09-08T01:45:28.006Z,75.96
2018-09-08T01:46:27.972Z,75.65
2018-09-08T01:47:27.958Z,76.06
2018-09-08T01:48:27.949Z,76.27
2018-09-08T01:49:27.929Z,75.99
2018-09-08T01:50:27.954Z,76.40
2018-09-08T01:51:27.903Z,76.61
2018-09-08T01:52:27.893Z,76.81
2018-09-08T01:53:27.900Z,77.64
2018-09-08T01:54:27.894Z,77.87
2018-09-08T01:55:27.867Z,77.87
2018-09-08T01:56:27.876Z,77.98
2018-09-08T01:57:27.838Z,77.98
2018-09-08T01:58:27.825Z,77.87
2018-09-08T01:59:27.809Z,78.19
2018-09-08T02:00:27.803Z,78.19
2018-09-08T02:01:27.811Z,78.08
2018-09-08T02:02:27.779Z,77.94
2018-09-08T02:03:27.764Z,77.33
2018-09-08T02:04:27.750Z,77.12
2018-09-08T02:05:27.746Z,76.61
2018-09-08T02:06:27.753Z,76.78
2018-09-08T02:07:27.716Z,76.47
2018-09-08T02:08:27.710Z,76.78
2018-09-08T02:09:27.689Z,76.68
2018-09-08T02:10:27.680Z,76.81
2018-09-08T02:11:27.695Z,77.02
2018-09-08T02:12:27.660Z,76.81
2018-09-08T02:13:27.650Z,76.88
2018-09-08T02:14:27.630Z,76.98
2018-09-08T02:15:27.627Z,76.34
2018-09-08T02:16:27.637Z,75.93
2018-09-08T02:17:27.594Z,75.42
2018-09-08T02:18:27.591Z,75.21
2018-09-08T02:19:27.577Z,75.01
2018-09-08T02:20:27.562Z,74.26
2018-09-08T02:21:27.575Z,74.56
2018-09-08T02:22:27.543Z,74.66
2018-09-08T02:23:27.524Z,73.85
2018-09-08T02:24:27.517Z,74.63
2018-09-08T02:25:27.510Z,74.32
2018-09-08T02:26:27.509Z,74.11
2018-09-08T02:27:27.487Z,74.11
2018-09-08T02:28:27.474Z,74.63
2018-09-08T02:29:27.458Z,74.22
2018-09-08T02:30:27.450Z,74.73
2018-09-08T02:31:27.454Z,74.32
2018-09-08T02:32:27.424Z,73.91
2018-09-08T02:33:27.410Z,74.02
2018-09-08T02:34:27.396Z,74.18
2018-09-08T02:35:27.385Z,73.57
2018-09-08T02:36:27.395Z,73.88
2018-09-08T02:37:27.369Z,73.98
2018-09-08T02:38:27.350Z,74.39
2018-09-08T02:39:27.345Z,73.98
2018-09-08T02:40:27.334Z,73.88
2018-09-08T02:41:27.336Z,73.98
2018-09-08T02:42:27.310Z,74.59
2018-09-08T02:43:27.291Z,74.29
2018-09-08T02:44:27.279Z,74.73
2018-09-08T02:45:27.271Z,74.84
2018-09-08T02:46:27.280Z,75.45
2018-09-08T02:47:27.248Z,75.85
2018-09-08T02:48:27.236Z,75.85
2018-09-08T02:49:27.228Z,76.37
2018-09-08T02:50:27.219Z,75.96
2018-09-08T02:51:27.219Z,75.85
2018-09-08T02:52:27.190Z,76.26
2018-09-08T02:53:27.179Z,76.26
2018-09-08T02:54:27.166Z,76.50
2018-09-08T02:55:27.156Z,76.37
2018-09-08T02:56:27.174Z,76.37
2018-09-08T02:57:27.133Z,76.47
2018-09-08T02:58:27.122Z,75.96
2018-09-08T02:59:27.106Z,75.96
2018-09-08T03:00:27.100Z,76.47
2018-09-08T03:01:27.079Z,76.57
2018-09-08T03:02:27.091Z,76.71
2018-09-08T03:03:27.056Z,76.40
2018-09-08T03:04:27.044Z,77.12
2018-09-08T03:05:27.035Z,76.71
2018-09-08T03:06:27.026Z,76.78
2018-09-08T03:07:27.032Z,76.78
2018-09-08T03:08:27.006Z,76.37
2018-09-08T03:09:26.989Z,76.47
2018-09-08T03:10:26.978Z,76.47
2018-09-08T03:11:26.966Z,76.67
2018-09-08T03:12:26.974Z,76.57
2018-09-08T03:13:26.943Z,76.71
2018-09-08T03:14:26.928Z,76.71
2018-09-08T03:15:26.920Z,77.01
2018-09-08T03:16:26.907Z,77.42
2018-09-08T03:17:26.922Z,77.46
2018-09-08T03:18:26.886Z,78.08
2018-09-08T03:19:26.870Z,77.46
2018-09-08T03:20:26.864Z,77.32
2018-09-08T03:21:26.843Z,77.97
2018-09-08T03:22:26.863Z,77.56
2018-09-08T03:23:26.825Z,77.83
2018-09-08T05:17:09.891Z,85.54
2018-09-08T05:18:09.835Z,85.13
2018-09-08T05:22:49.225Z,85.74
2018-09-08T05:23:49.224Z,85.85
2018-09-08T05:26:33.548Z,86.05
2018-09-08T05:27:33.538Z,85.54
2018-09-08T05:29:45.800Z,85.33
2018-09-08T05:32:28.543Z,84.92
2018-09-08T05:35:01.787Z,85.44
2018-09-08T05:37:20.767Z,85.44
2018-09-08T05:39:35.943Z,85.85
2018-09-08T05:41:42.070Z,85.60
2018-09-08T05:43:48.819Z,85.80
2018-09-08T05:45:30.354Z,85.60
2018-09-08T05:47:41.908Z,85.60
2018-09-08T05:49:35.720Z,85.74
2018-09-08T05:51:32.868Z,85.39
2018-09-08T05:53:25.500Z,85.30
2018-09-08T05:55:03.723Z,85.19
2018-09-08T05:56:24.499Z,85.71
2018-09-08T05:57:24.484Z,86.52
2018-09-08T05:58:39.356Z,85.50
2018-09-08T05:59:57.781Z,85.66
2018-09-08T06:01:24.266Z,85.80
2018-09-08T06:02:48.613Z,86.22
2018-09-08T06:03:48.332Z,86.63
2018-09-08T06:05:02.333Z,86.83
2018-09-08T06:06:21.369Z,86.58
2018-09-08T06:07:48.079Z,87.10
2018-09-08T06:08:48.074Z,87.41
2018-09-08T06:10:00.844Z,86.79
2018-09-08T06:11:14.213Z,86.44
2018-09-08T06:12:14.127Z,85.38
2018-09-08T06:13:14.091Z,85.69
2018-09-08T06:14:14.075Z,84.77
2018-09-08T06:15:14.090Z,84.42
2018-09-08T06:16:14.054Z,84.07
2018-09-08T06:17:14.048Z,83.56
2018-09-08T06:18:14.062Z,83.52
2018-09-08T06:19:14.025Z,82.91
2018-09-08T06:20:14.026Z,81.95
2018-09-08T06:21:13.993Z,81.54
2018-09-08T06:22:13.990Z,80.99
2018-09-08T06:23:13.977Z,80.48
2018-09-08T06:24:13.972Z,79.66
2018-09-08T06:25:13.968Z,79.22
2018-09-08T06:26:13.945Z,78.88
2018-09-08T06:27:13.930Z,78.06
2018-09-08T06:28:13.915Z,77.86
2018-09-08T06:29:13.914Z,77.72
2018-09-08T06:30:13.918Z,77.11
2018-09-08T06:31:13.880Z,76.90
2018-09-08T06:32:13.873Z,77.51
2018-09-08T06:33:13.866Z,76.59
2018-09-08T06:34:13.848Z,76.46
2018-09-08T06:35:13.915Z,76.32
2018-09-08T06:36:13.851Z,75.81
2018-09-08T06:37:13.810Z,75.51
2018-09-08T06:38:13.803Z,75.51
2018-09-08T06:39:13.803Z,75.81
2018-09-08T06:40:13.775Z,74.76
2018-09-08T06:41:13.794Z,74.65
2018-09-08T06:42:13.754Z,74.35
2018-09-08T06:43:13.743Z,74.35
2018-09-08T06:44:13.738Z,74.11
2018-09-08T06:45:14.018Z,74.01
2018-09-08T06:46:13.737Z,73.36
2018-09-08T06:47:13.699Z,74.28
2018-09-08T06:48:13.908Z,73.26
2018-09-08T06:49:13.673Z,72.86
2018-09-08T06:50:13.665Z,73.47
2018-09-08T06:51:13.678Z,72.01
2018-09-08T06:52:13.713Z,72.52
2018-09-08T06:53:13.632Z,73.23
2018-09-08T06:54:13.613Z,73.02
2018-09-08T06:55:13.611Z,72.17
2018-09-08T06:56:13.617Z,71.26
2018-09-08T06:57:13.576Z,70.72
2018-09-08T06:58:13.573Z,70.92
2018-09-08T06:59:13.557Z,71.26
2018-09-08T07:00:13.756Z,70.82
2018-09-08T07:01:13.649Z,70.11
2018-09-08T07:02:13.516Z,70.42
2018-09-08T07:03:13.528Z,70.62
2018-09-08T07:04:13.504Z,70.89
2018-09-08T07:05:13.489Z,70.68
2018-09-08T07:06:13.496Z,69.26
2018-09-08T07:07:13.460Z,69.43
2018-09-08T07:08:13.462Z,69.26
2018-09-08T07:09:13.439Z,69.06
2018-09-08T07:10:13.424Z,68.83
2018-09-08T07:11:13.439Z,68.45
2018-09-08T07:12:13.402Z,69.13
2018-09-08T07:13:13.400Z,68.73
2018-09-08T07:14:13.379Z,68.52
2018-09-08T07:15:13.427Z,68.45
2018-09-08T07:16:13.379Z,68.32
2018-09-08T07:17:13.348Z,69.03
2018-09-08T07:18:13.342Z,68.52
2018-09-08T07:19:13.322Z,67.81
2018-09-08T07:20:13.332Z,68.32
2018-09-08T07:21:13.331Z,68.52
2018-09-08T07:22:13.290Z,69.03
2018-09-08T07:23:13.283Z,68.79
2018-09-08T07:24:13.265Z,67.88
2018-09-08T07:25:13.254Z,67.68
2018-09-08T07:26:13.268Z,67.24
2018-09-08T07:27:13.237Z,67.03
2018-09-08T07:28:13.223Z,67.55
2018-09-08T07:29:13.214Z,67.58
2018-09-08T07:30:13.207Z,67.44
2018-09-08T07:31:13.214Z,67.14
2018-09-08T07:32:13.178Z,67.92
2018-09-08T07:33:13.171Z,67.99
2018-09-08T07:34:13.151Z,66.37
2018-09-08T07:35:13.143Z,67.08
2018-09-08T07:36:13.156Z,67.05
2018-09-08T07:37:13.157Z,64.69
2018-09-08T07:38:13.111Z,64.79
2018-09-08T07:39:13.093Z,64.07
2018-09-08T07:40:13.089Z,65.19
2018-09-08T07:41:13.104Z,64.28
2018-09-08T07:42:13.065Z,64.28
2018-09-08T07:43:13.056Z,63.84
2018-09-08T07:44:13.035Z,65.16
2018-09-08T07:45:13.027Z,63.41
2018-09-08T07:46:13.018Z,63.51
2018-09-08T07:47:13.031Z,63.81
2018-09-08T07:48:12.989Z,64.26
2018-09-08T07:49:12.984Z,63.15
2018-09-08T07:50:12.984Z,61.94
2018-09-08T07:51:12.955Z,62.31
2018-09-08T07:52:12.975Z,60.77
2018-09-08T07:53:12.952Z,61.68
2018-09-08T07:54:12.929Z,61.44
2018-09-08T07:55:12.921Z,61.24
2018-09-08T07:56:12.903Z,61.01
2018-09-08T07:57:12.918Z,59.90
2018-09-08T07:58:12.880Z,60.17
2018-09-08T07:59:12.900Z,58.97
2018-09-08T08:00:12.861Z,59.97
2018-09-08T08:01:12.847Z,60.48
2018-09-08T08:02:12.871Z,59.17
2018-09-08T08:03:12.823Z,59.27
2018-09-08T08:04:12.810Z,59.17
2018-09-08T08:05:12.797Z,59.50
2018-09-08T08:06:12.788Z,58.59
2018-09-08T08:07:12.799Z,59.80
2018-09-08T08:08:12.770Z,60.10
2018-09-08T08:09:12.755Z,59.27
2018-09-08T08:10:12.736Z,58.69
2018-09-08T08:11:12.733Z,60.61
2018-09-08T08:12:12.734Z,60.75
2018-09-08T08:13:12.702Z,60.78
2018-09-08T08:14:12.691Z,58.36
2018-09-08T08:15:12.684Z,59.17
2018-09-08T08:16:12.675Z,59.77
2018-09-08T08:17:12.682Z,58.59
2018-09-08T08:18:12.645Z,59.67
2018-09-08T08:19:12.630Z,61.01
2018-09-08T08:20:12.629Z,61.18
2018-09-08T08:21:12.615Z,59.57
2018-09-08T08:22:12.624Z,59.88
2018-09-08T08:23:12.604Z,59.34
2018-09-08T08:24:12.573Z,58.11
2018-09-08T08:25:12.567Z,57.98
2018-09-08T08:26:12.550Z,58.28
2018-09-08T08:27:12.567Z,57.57
2018-09-08T08:28:12.541Z,57.35
2018-09-08T08:29:12.527Z,57.48
2018-09-08T08:30:12.510Z,58.15
2018-09-08T08:31:12.520Z,56.54
2018-09-08T08:32:12.514Z,56.47
2018-09-08T08:33:12.475Z,57.35
2018-09-08T08:34:12.465Z,57.48
2018-09-08T08:35:12.449Z,56.67
2018-09-08T08:36:12.439Z,56.24
2018-09-08T08:37:12.516Z,56.47
2018-09-08T08:38:12.414Z,58.28
2018-09-08T08:39:12.405Z,57.00
2018-09-08T08:40:12.391Z,56.67
2018-09-08T08:41:12.396Z,56.87
2018-09-08T08:42:12.393Z,59.01
2018-09-08T08:43:12.398Z,58.18
2018-09-08T08:44:12.352Z,57.37
2018-09-08T08:45:12.337Z,57.48
2018-09-08T08:46:12.322Z,57.28
2018-09-08T08:47:12.333Z,57.88
2018-09-08T08:48:12.299Z,56.54
2018-09-08T08:49:12.292Z,57.48
2018-09-08T08:50:12.277Z,56.74
2018-09-08T08:51:12.269Z,58.25
2018-09-08T08:52:12.285Z,57.24
2018-09-08T08:53:12.242Z,57.45
2018-09-08T08:54:12.236Z,58.02
2018-09-08T08:55:12.221Z,56.21
2018-09-08T08:56:12.211Z,57.02
2018-09-08T08:57:12.197Z,57.02
2018-09-08T08:58:12.262Z,56.99
2018-09-08T08:59:12.173Z,56.38
2018-09-08T09:00:12.169Z,56.31
2018-09-08T09:01:12.153Z,56.51
2018-09-08T09:02:12.144Z,55.61
2018-09-08T09:03:12.149Z,56.16
2018-09-08T09:04:12.114Z,56.97
2018-09-08T09:05:12.106Z,56.90
2018-09-08T09:06:12.096Z,56.60
2018-09-08T09:07:12.605Z,57.43
2018-09-08T09:08:12.096Z,57.30
2018-09-08T09:09:12.063Z,57.30
2018-09-08T09:10:12.095Z,57.70
2018-09-08T09:11:12.040Z,56.77
2018-09-08T09:12:12.030Z,56.77
2018-09-08T09:13:12.088Z,56.24
2018-09-08T09:14:12.009Z,56.34
2018-09-08T09:15:12.386Z,56.51
2018-09-08T09:16:11.986Z,56.62
2018-09-08T09:17:11.972Z,56.49
2018-09-08T09:18:11.981Z,56.16
2018-09-08T09:19:11.949Z,54.05
2018-09-08T09:20:11.941Z,55.03
2018-09-08T09:21:11.920Z,53.52
2018-09-08T09:22:11.920Z,56.23
2018-09-08T09:23:11.925Z,53.27
2018-09-08T09:24:12.015Z,55.75
2018-09-08T09:25:11.884Z,54.75
2018-09-08T09:26:11.863Z,51.42
2018-09-08T09:27:11.855Z,51.72
2018-09-08T09:28:11.876Z,53.62
2018-09-08T09:29:11.837Z,52.89
2018-09-08T09:30:11.823Z,52.77
2018-09-08T09:31:11.814Z,51.27
2018-09-08T09:32:11.836Z,49.57
2018-09-08T09:33:11.789Z,49.79
2018-09-08T09:34:11.800Z,50.54
2018-09-08T09:35:11.766Z,51.67
2018-09-08T09:36:11.751Z,51.69
2018-09-08T09:37:11.758Z,53.37
2018-09-08T09:38:11.736Z,54.88
2018-09-08T09:39:11.743Z,52.07
2018-09-08T09:40:11.713Z,51.64
2018-09-08T09:41:11.703Z,51.01
2018-09-08T09:42:11.687Z,50.42
2018-09-08T09:43:11.681Z,52.89
2018-09-08T09:44:11.746Z,51.37
2018-09-08T09:45:11.661Z,52.55
2018-09-08T09:46:11.648Z,49.52
2018-09-08T09:47:11.639Z,47.39
2018-09-08T09:48:11.620Z,48.94
2018-09-08T09:49:11.635Z,48.22
2018-09-08T09:50:11.605Z,51.12
2018-09-08T09:51:11.586Z,50.39
2018-09-08T09:52:11.579Z,48.77
2018-09-08T09:53:11.596Z,45.97
2018-09-08T09:54:11.585Z,47.72
2018-09-08T09:55:11.542Z,49.76
2018-09-08T09:56:11.540Z,47.94
2018-09-08T09:57:11.534Z,51.04
2018-09-08T09:58:11.509Z,49.04
2018-09-08T09:59:11.528Z,49.34
2018-09-08T10:00:11.488Z,47.54
2018-09-08T10:01:11.533Z,51.42
2018-09-08T10:02:11.468Z,47.72
2018-09-08T10:03:11.464Z,47.79
2018-09-08T10:04:11.476Z,47.69
2018-09-08T10:05:11.434Z,49.02
2018-09-08T10:06:11.428Z,45.00
2018-09-08T10:07:11.413Z,46.59
2018-09-08T10:08:11.400Z,45.09
2018-09-08T10:09:11.398Z,45.21
2018-09-08T10:10:11.401Z,45.81
2018-09-08T10:11:11.370Z,45.62
2018-09-08T10:12:11.410Z,46.01
2018-09-08T10:13:11.345Z,49.24
2018-09-08T10:14:11.343Z,49.72
2018-09-08T10:15:11.354Z,47.69
2018-09-08T10:16:11.316Z,46.07
2018-09-08T10:17:11.310Z,48.65
2018-09-08T10:18:11.290Z,48.32
2018-09-08T10:19:11.282Z,45.63
2018-09-08T10:20:11.295Z,48.30
2018-09-08T10:21:11.257Z,43.59
2018-09-08T10:22:11.255Z,46.31
2018-09-08T10:23:11.362Z,44.89
2018-09-08T10:24:11.227Z,44.07
2018-09-08T10:25:11.232Z,43.65
2018-09-08T10:26:11.249Z,41.14
2018-09-08T10:27:11.196Z,42.15
2018-09-08T10:28:11.182Z,42.25
2018-09-08T10:29:11.179Z,41.67
2018-09-08T10:30:11.178Z,42.61
2018-09-08T10:31:11.150Z,45.65
2018-09-08T10:32:11.534Z,44.25
2018-09-08T10:33:11.125Z,43.95
2018-09-08T10:34:11.122Z,44.70
2018-09-08T10:35:11.137Z,45.09
2018-09-08T10:36:11.099Z,44.87
2018-09-08T10:37:11.090Z,48.07
2018-09-08T10:38:11.070Z,44.37
2018-09-08T10:39:11.061Z,45.17
2018-09-08T10:40:11.098Z,44.70
2018-09-08T10:41:11.047Z,44.82
2018-09-08T10:42:11.027Z,45.76
2018-09-08T10:43:11.024Z,47.16
2018-09-08T10:44:11.006Z,46.04
2018-09-08T10:45:11.016Z,46.01
2018-09-08T10:46:10.990Z,44.29
2018-09-08T10:47:10.971Z,43.09
2018-09-08T10:48:10.970Z,46.19
2018-09-08T10:49:10.959Z,42.65
2018-09-08T10:50:10.987Z,43.53
2018-09-08T10:51:10.930Z,45.23
2018-09-08T10:52:10.923Z,42.03
2018-09-08T10:53:10.911Z,43.11
2018-09-08T10:54:10.898Z,40.59
2018-09-08T10:55:10.883Z,43.07
2018-09-08T10:56:10.896Z,41.75
2018-09-08T10:57:10.867Z,40.04
2018-09-08T10:58:10.853Z,39.83
2018-09-08T10:59:10.858Z,38.20
2018-09-08T11:00:10.833Z,37.60
2018-09-08T11:01:10.843Z,36.82
2018-09-08T11:02:11.082Z,42.09
2018-09-08T11:03:10.799Z,39.59
2018-09-08T11:04:10.791Z,37.08
2018-09-08T11:05:10.781Z,36.08
2018-09-08T11:06:10.795Z,37.73
2018-09-08T11:07:10.760Z,38.15
2018-09-08T11:08:10.744Z,38.05
2018-09-08T11:09:10.741Z,38.07
2018-09-08T11:10:10.724Z,39.90
2018-09-08T11:11:10.745Z,40.08
2018-09-08T11:12:10.709Z,38.46
2018-09-08T11:13:10.696Z,38.67
2018-09-08T11:14:10.686Z,37.87
2018-09-08T11:15:10.679Z,38.59
2018-09-08T11:16:10.683Z,38.70
2018-09-08T11:17:10.657Z,39.72
2018-09-08T11:18:10.641Z,40.32
2018-09-08T11:19:10.627Z,39.80
2018-09-08T11:20:10.624Z,40.12
2018-09-08T11:21:10.635Z,41.61
2018-09-08T11:22:10.594Z,40.42
2018-09-08T11:23:10.588Z,38.00
2018-09-08T11:24:10.579Z,37.68
2018-09-08T11:25:10.562Z,37.77
2018-09-08T11:26:10.583Z,38.37
2018-09-08T11:27:10.546Z,43.52
2018-09-08T11:28:10.534Z,41.60
2018-09-08T11:29:10.524Z,40.38
2018-09-08T11:30:10.512Z,42.55
2018-09-08T11:31:10.518Z,41.22
2018-09-08T11:32:10.495Z,39.63
2018-09-08T11:33:10.479Z,36.93
2018-09-08T11:34:10.471Z,39.90
2018-09-08T11:35:10.463Z,38.79
2018-09-08T11:36:10.465Z,39.97
2018-09-08T11:37:10.431Z,38.96
2018-09-08T11:38:10.499Z,38.44
2018-09-08T11:39:10.417Z,38.70
2018-09-08T11:40:10.401Z,37.81
2018-09-08T11:41:10.420Z,34.33
2018-09-08T11:42:10.377Z,38.07
2018-09-08T11:43:10.370Z,36.08
2018-09-08T11:44:10.363Z,35.66
2018-09-08T11:45:10.348Z,34.66
2018-09-08T11:46:10.365Z,35.05
2018-09-08T11:47:10.334Z,35.24
2018-09-08T11:48:10.314Z,36.12
2018-09-08T11:49:10.309Z,34.23
2018-09-08T11:50:10.296Z,33.34
2018-09-08T11:51:10.303Z,31.45
2018-09-08T11:52:10.280Z,31.57
2018-09-08T11:53:10.267Z,34.25
2018-09-08T11:54:10.256Z,31.98
2018-09-08T11:55:10.242Z,32.28
2018-09-08T11:56:10.261Z,35.35
2018-09-08T11:57:10.223Z,33.18
2018-09-08T11:58:10.212Z,28.78
2018-09-08T11:59:10.244Z,31.28
2018-09-08T12:00:10.190Z,33.56
2018-09-08T12:01:10.198Z,30.50
2018-09-08T12:02:10.241Z,34.36
2018-09-08T12:03:10.221Z,35.44
2018-09-08T12:04:10.155Z,30.29
2018-09-08T12:05:10.141Z,34.43
2018-09-08T12:06:10.166Z,31.28
2018-09-08T12:07:10.121Z,30.52
2018-09-08T12:08:10.196Z,31.44
2018-09-08T12:09:10.097Z,33.30
2018-09-08T12:10:10.089Z,36.34
2018-09-08T12:11:10.077Z,38.43
2018-09-08T12:12:10.083Z,40.70
2018-09-08T12:13:10.056Z,41.30
2018-09-08T12:14:10.035Z,35.59
2018-09-08T12:15:10.033Z,36.17
2018-09-08T12:16:10.019Z,34.76
2018-09-08T12:17:10.038Z,35.75
2018-09-08T12:18:09.997Z,35.99
2018-09-08T12:19:10.037Z,35.79
2018-09-08T12:20:09.970Z,35.39
2018-09-08T12:21:09.964Z,35.87
2018-09-08T12:22:10.026Z,34.84
2018-09-08T12:23:09.939Z,32.96
2018-09-08T12:24:09.934Z,33.47
2018-09-08T12:25:09.925Z,34.00
2018-09-08T12:26:09.905Z,34.92
2018-09-08T12:27:09.924Z,38.59
2018-09-08T12:28:09.884Z,37.08
2018-09-08T12:29:09.871Z,35.75
2018-09-08T12:30:09.873Z,32.64
2018-09-08T12:31:09.855Z,32.93
2018-09-08T12:32:09.862Z,33.92
2018-09-08T12:33:09.829Z,36.36
2018-09-08T12:34:09.828Z,33.06
2018-09-08T12:35:09.814Z,33.41
2018-09-08T12:36:09.805Z,28.66
2018-09-08T12:37:09.832Z,27.89
2018-09-08T12:38:09.782Z,28.67
2018-09-08T12:39:09.766Z,30.26
2018-09-08T12:40:09.761Z,28.97
2018-09-08T12:41:09.744Z,30.10
2018-09-08T12:42:09.763Z,32.21
2018-09-08T12:43:09.722Z,31.82
2018-09-08T12:44:09.720Z,32.53
2018-09-08T12:45:09.709Z,33.65
2018-09-08T12:46:09.690Z,34.25
2018-09-08T12:47:09.709Z,34.46
2018-09-08T12:48:09.675Z,38.26
2018-09-08T12:49:09.668Z,34.50
2018-09-08T12:50:09.646Z,37.66
2018-09-08T12:51:09.639Z,37.36
2018-09-08T12:52:09.666Z,34.40
2018-09-08T12:53:09.613Z,36.78
2018-09-08T12:54:09.605Z,35.79
2018-09-08T12:55:09.597Z,37.34
2018-09-08T12:56:09.583Z,38.12
2018-09-08T12:57:09.596Z,39.57
2018-09-08T12:58:09.565Z,36.76
2018-09-08T12:59:09.599Z,36.33
2018-09-08T13:00:09.539Z,33.04
2018-09-08T13:01:09.531Z,35.89
2018-09-08T13:02:09.541Z,31.45
2018-09-08T13:03:09.511Z,32.85
2018-09-08T13:04:09.500Z,33.92
2018-09-08T13:05:09.484Z,31.04
2018-09-08T13:06:09.481Z,30.97
2018-09-08T13:07:09.483Z,31.96
2018-09-08T13:08:09.460Z,31.97
2018-09-08T13:09:09.449Z,32.76
2018-09-08T13:10:09.430Z,37.12
2018-09-08T13:11:09.426Z,34.22
2018-09-08T13:12:09.435Z,33.69
2018-09-08T13:13:09.397Z,31.79
2018-09-08T13:14:09.398Z,35.76
2018-09-08T13:15:09.378Z,34.06
2018-09-08T13:16:09.374Z,34.56
2018-09-08T13:17:09.365Z,33.95
2018-09-08T13:18:09.366Z,33.15
2018-09-08T13:19:09.336Z,30.79
2018-09-08T13:20:09.329Z,34.74
2018-09-08T13:21:09.315Z,33.46
2018-09-08T13:22:09.307Z,29.93
2018-09-08T13:23:09.322Z,30.36
2018-09-08T13:24:09.356Z,31.20
2018-09-08T13:25:09.278Z,34.25
2018-09-08T13:26:09.261Z,35.67
2018-09-08T13:27:09.247Z,35.29
2018-09-08T13:28:09.268Z,35.39
2018-09-08T13:29:09.229Z,36.30
2018-09-08T13:30:09.223Z,36.34
2018-09-08T13:31:09.213Z,38.15
2018-09-08T13:32:09.194Z,37.05
2018-09-08T13:33:09.209Z,37.19
2018-09-08T13:34:09.175Z,38.40
2018-09-08T13:35:09.162Z,38.48
2018-09-08T13:36:09.158Z,37.82
2018-09-08T13:37:09.136Z,38.32
2018-09-08T13:38:09.157Z,38.12
2018-09-08T13:39:09.121Z,41.58
2018-09-08T13:40:09.113Z,41.53
2018-09-08T13:41:09.102Z,37.83
2018-09-08T13:42:09.089Z,36.82
2018-09-08T13:43:09.098Z,36.32
2018-09-08T13:44:09.067Z,36.12
2018-09-08T13:45:09.049Z,37.70
2018-09-08T13:46:09.053Z,36.07
2018-09-08T13:47:09.154Z,36.93
2018-09-08T13:48:09.048Z,37.23
2018-09-08T13:49:09.014Z,35.72
2018-09-08T13:50:09.002Z,34.81
2018-09-08T13:51:08.986Z,37.19
2018-09-08T13:52:08.979Z,37.57
2018-09-08T13:53:08.971Z,35.37
2018-09-08T13:54:08.974Z,34.10
2018-09-08T13:55:08.945Z,36.38
2018-09-08T13:56:08.930Z,36.88
2018-09-08T13:57:08.955Z,35.21
2018-09-08T13:58:08.911Z,34.41
2018-09-08T13:59:08.924Z,35.82
2018-09-08T14:00:08.887Z,34.12
2018-09-08T14:01:08.886Z,33.55
2018-09-08T14:02:08.868Z,34.99
2018-09-08T14:03:08.862Z,38.41
2018-09-08T14:04:08.880Z,37.83
2018-09-08T14:05:08.833Z,40.32
2018-09-08T14:06:08.849Z,40.40
2018-09-08T14:07:08.808Z,35.71
2018-09-08T14:08:08.807Z,37.99
2018-09-08T14:09:08.787Z,39.78
2018-09-08T14:10:08.815Z,37.10
2018-09-08T14:11:08.765Z,41.25
2018-09-08T14:12:08.763Z,36.27
2018-09-08T14:13:08.751Z,37.76
2018-09-08T14:14:08.733Z,35.19
2018-09-08T14:15:08.729Z,37.38
2018-09-08T14:16:08.732Z,41.16
2018-09-08T14:17:08.699Z,40.14
2018-09-08T14:18:08.696Z,37.66
2018-09-08T14:19:08.676Z,37.56
2018-09-08T14:20:08.674Z,34.86
2018-09-08T14:21:08.685Z,35.38
2018-09-08T14:22:08.642Z,41.34
2018-09-08T14:23:08.641Z,37.38
2018-09-08T14:24:08.620Z,37.98
2018-09-08T14:25:08.612Z,37.90
2018-09-08T14:26:08.627Z,41.97
2018-09-08T14:27:08.595Z,35.79
2018-09-08T14:28:08.576Z,35.19
2018-09-08T14:29:08.571Z,36.70
2018-09-08T14:30:08.558Z,35.54
2018-09-08T14:31:08.563Z,37.45
2018-09-08T14:32:08.541Z,38.76
2018-09-08T14:33:08.523Z,38.68
2018-09-08T14:34:08.515Z,40.40
2018-09-08T14:35:08.507Z,38.90
2018-09-08T14:36:08.519Z,38.80
2018-09-08T14:37:08.481Z,38.80
2018-09-08T14:38:08.465Z,38.22
2018-09-08T14:39:08.451Z,40.94
2018-09-08T14:40:08.450Z,40.64
2018-09-08T14:41:08.436Z,42.61
2018-09-08T14:42:08.441Z,40.42
2018-09-08T14:43:08.406Z,39.72
2018-09-08T14:44:08.397Z,44.38
2018-09-08T14:45:08.390Z,41.99
2018-09-08T14:46:08.372Z,38.59
2018-09-08T14:47:08.391Z,38.80
2018-09-08T14:48:08.350Z,42.45
2018-09-08T14:49:08.345Z,38.07
2018-09-08T14:50:08.330Z,37.29
2018-09-08T14:51:08.315Z,41.89
2018-09-08T14:52:08.336Z,38.82
2018-09-08T14:53:08.294Z,43.69
2018-09-08T14:54:08.286Z,38.31
2018-09-08T14:55:08.279Z,38.32
2018-09-08T14:56:08.258Z,42.71
2018-09-08T14:57:08.302Z,40.52
2018-09-08T14:58:08.244Z,38.52
2018-09-08T14:59:08.234Z,39.02
2018-09-08T15:00:08.250Z,38.84
2018-09-08T15:01:08.214Z,38.85
2018-09-08T15:02:08.224Z,40.78
2018-09-08T15:03:08.180Z,41.09
2018-09-08T15:04:08.179Z,42.27
2018-09-08T15:05:08.263Z,40.67
2018-09-08T15:06:08.147Z,41.97
2018-09-08T15:07:08.168Z,39.98
2018-09-08T15:08:08.123Z,41.88